Time;durP1;ratioP1;P1;durP2;ratioP2;P2;SDS_P1;SDS_P2;PMS_P1;PMS_P2;Temp;Humidity;BMP_temperature;BMP_pressure;BME280_temperature;BME280_humidity;BME280_pressure;Samples;Min_cycle;Max_cycle;Signal;HPM_P1;HPM_P2
2022/07/30 00:00:32;;;;;;;;;6.00;6.00;;;;;24.50;37.53;101215.91;5090302;27;46993;-63
2022/07/30 00:02:58;;;;;;;;;4.50;4.50;;;;;24.45;37.56;101218.25;5076196;28;45327;-66
2022/07/30 00:05:23;;;;;;;;;5.25;5.25;;;;;24.38;37.90;101225.34;5076718;28;45462;-60
2022/07/30 00:07:49;;;;;;;;;6.00;5.50;;;;;24.32;37.95;101225.97;5076870;27;45522;-65
2022/07/30 00:10:14;;;;;;;;;5.00;5.00;;;;;24.24;37.93;101218.63;5075833;28;45714;-68
2022/07/30 00:12:40;;;;;;;;;4.00;4.00;;;;;24.27;37.81;101220.16;5076133;28;45413;-66
2022/07/30 00:15:06;;;;;;;;;6.00;6.00;;;;;24.24;38.33;101229.47;5075019;28;45421;-65
2022/07/30 00:17:31;;;;;;;;;4.00;4.00;;;;;24.26;38.24;101226.59;5077690;28;45319;-66
2022/07/30 00:19:57;;;;;;;;;4.50;3.00;;;;;24.24;38.56;101221.34;5079398;28;45481;-65
2022/07/30 00:22:22;;;;;;;;;8.00;5.25;;;;;24.23;38.31;101219.63;5079829;28;45347;-63
2022/07/30 00:24:48;;;;;;;;;7.00;7.00;;;;;24.19;38.53;101226.38;5079636;27;45326;-64
2022/07/30 00:27:13;;;;;;;;;8.00;6.00;;;;;24.12;38.49;101214.44;5079002;28;45256;-65
2022/07/30 00:29:39;;;;;;;;;4.00;4.00;;;;;24.08;39.00;101213.88;5061380;28;45281;-66
2022/07/30 00:32:04;;;;;;;;;5.00;5.00;;;;;24.02;38.35;101203.66;5079324;27;45158;-63
2022/07/30 00:34:30;;;;;;;;;8.00;6.25;;;;;24.03;38.50;101209.97;5079649;28;45398;-62
2022/07/30 00:36:55;;;;;;;;;8.50;4.00;;;;;23.94;39.21;101213.59;5080464;28;45543;-63
2022/07/30 00:39:21;;;;;;;;;5.50;5.50;;;;;23.94;38.87;101219.91;5079490;28;45353;-63
2022/07/30 00:41:54;;;;;;;;;6.00;4.00;;;;;23.89;39.25;101219.53;5079375;28;45223;-62
2022/07/30 00:44:19;;;;;;;;;8.00;8.00;;;;;23.83;39.54;101214.75;5061673;28;45278;-62
2022/07/30 00:46:45;;;;;;;;;8.00;6.25;;;;;23.78;39.39;101211.63;5079469;28;45248;-61
2022/07/30 00:49:10;;;;;;;;;8.00;6.00;;;;;23.74;39.63;101212.94;5079233;28;46430;-63
2022/07/30 00:51:36;;;;;;;;;5.00;5.00;;;;;23.68;39.80;101211.69;5079200;28;45269;-62
2022/07/30 00:54:01;;;;;;;;;10.75;7.25;;;;;23.70;40.26;101203.38;5079104;28;45484;-64
2022/07/30 00:56:27;;;;;;;;;8.25;4.50;;;;;23.72;39.91;101209.53;5079555;27;45449;-63
2022/07/30 00:58:52;;;;;;;;;11.00;9.75;;;;;23.65;40.00;101219.31;5077911;28;45571;-60
2022/07/30 01:01:18;;;;;;;;;8.25;8.00;;;;;23.55;40.59;101203.06;5082642;27;45405;-65
2022/07/30 01:03:43;;;;;;;;;6.00;6.00;;;;;23.52;40.68;101209.66;5099661;27;45266;-65
2022/07/30 01:06:09;;;;;;;;;6.25;6.25;;;;;23.46;40.96;101212.16;5100037;27;45455;-61
2022/07/30 01:08:34;;;;;;;;;11.00;9.75;;;;;23.43;41.18;101210.56;5081336;27;46068;-63
2022/07/30 01:11:00;;;;;;;;;5.00;5.00;;;;;23.42;40.87;101206.16;5099134;27;45489;-62
2022/07/30 01:13:25;;;;;;;;;9.25;7.00;;;;;23.38;40.97;101215.63;5099781;27;45319;-62
2022/07/30 01:15:51;;;;;;;;;8.67;7.00;;;;;23.38;41.34;101215.63;5099166;27;45397;-64
2022/07/30 01:18:17;;;;;;;;;5.25;5.00;;;;;23.35;41.19;101210.50;5099094;27;46053;-61
2022/07/30 01:21:06;;;;;;;;;4.00;4.00;;;;;23.30;41.56;101204.66;5099044;27;45425;-60
2022/07/30 01:23:42;;;;;;;;;6.33;6.33;;;;;23.33;41.62;101206.25;5099286;27;45286;-62
2022/07/30 01:26:11;;;;;;;;;6.00;5.33;;;;;23.36;41.60;101206.78;5099498;27;45956;-65
2022/07/30 01:28:41;;;;;;;;;9.33;5.00;;;;;23.26;41.41;101189.72;5097802;27;45423;-64
2022/07/30 01:31:08;;;;;;;;;7.00;7.00;;;;;23.30;41.70;101196.53;5098721;27;45238;-64
2022/07/30 01:33:39;;;;;;;;;6.67;6.67;;;;;23.31;41.72;101202.81;5080499;27;45435;-64
2022/07/30 01:36:09;;;;;;;;;10.50;7.00;;;;;23.30;41.14;101196.53;5098958;27;45568;-67
2022/07/30 01:38:35;;;;;;;;;6.00;6.00;;;;;23.22;41.58;101189.16;5098823;27;46228;-64
2022/07/30 01:41:03;;;;;;;;;6.00;4.50;;;;;23.10;41.77;101190.38;5080650;27;45403;-65
2022/07/30 01:43:31;;;;;;;;;6.00;6.00;;;;;23.20;41.32;101201.19;5099176;27;45269;-66
2022/07/30 01:45:59;;;;;;;;;7.67;7.67;;;;;23.08;41.67;101191.56;5098991;27;45530;-62
2022/07/30 01:48:26;;;;;;;;;6.00;6.00;;;;;23.14;41.40;101210.78;5080735;27;46284;-64
2022/07/30 01:50:55;;;;;;;;;7.67;7.33;;;;;23.05;42.17;101202.69;5097138;27;45342;-65
2022/07/30 01:53:25;;;;;;;;;5.67;5.67;;;;;23.08;41.61;101208.69;5097663;27;45282;-61
2022/07/30 01:55:53;;;;;;;;;5.00;5.00;;;;;23.10;41.98;101213.94;5098714;27;45321;-61
2022/07/30 01:58:21;;;;;;;;;8.67;6.67;;;;;23.06;41.74;101215.28;5097246;27;46615;-62
2022/07/30 02:00:49;;;;;;;;;5.33;5.33;;;;;23.08;41.69;101213.25;5098375;27;45266;-62
2022/07/30 02:03:14;;;;;;;;;8.00;6.50;;;;;23.07;42.19;101206.97;5098494;27;45318;-62
2022/07/30 02:05:44;;;;;;;;;8.67;8.33;;;;;23.06;42.39;101204.44;5098930;27;45562;-64
2022/07/30 02:08:21;;;;;;;;;7.67;7.67;;;;;23.01;42.23;101202.13;5098213;27;46206;-62
2022/07/30 02:11:04;;;;;;;;;4.33;4.33;;;;;22.95;42.58;101202.75;5098271;27;45243;-63
2022/07/30 02:13:33;;;;;;;;;7.00;6.00;;;;;22.92;42.55;101209.34;5098647;27;45508;-64
2022/07/30 02:16:08;;;;;;;;;7.00;6.00;;;;;22.90;42.43;101211.34;5098852;27;45533;-63
2022/07/30 02:18:42;;;;;;;;;7.67;6.67;;;;;22.87;42.23;101211.66;5098220;27;45595;-64
2022/07/30 02:21:10;;;;;;;;;7.00;7.00;;;;;22.84;42.46;101198.38;5097810;27;45358;-64
2022/07/30 02:23:42;;;;;;;;;12.67;10.67;;;;;22.77;42.47;101199.94;5098024;27;45473;-64
2022/07/30 02:26:09;;;;;;;;;5.33;5.33;;;;;22.77;43.00;101215.38;5098618;27;45311;-64
2022/07/30 02:28:40;;;;;;;;;6.67;6.67;;;;;22.75;42.68;101204.69;5098225;27;46469;-62
2022/07/30 02:31:08;;;;;;;;;7.00;7.00;;;;;22.75;43.23;101207.38;5097707;27;45414;-63
2022/07/30 02:33:39;;;;;;;;;5.33;5.33;;;;;22.71;42.67;101206.00;5098581;27;45365;-61
2022/07/30 02:36:05;;;;;;;;;8.00;7.00;;;;;22.67;43.18;101199.16;5098909;27;45333;-62
2022/07/30 02:38:31;;;;;;;;;5.00;5.00;;;;;22.58;42.84;101195.47;5098076;27;45354;-62
2022/07/30 02:40:59;;;;;;;;;5.67;5.33;;;;;22.57;43.02;101184.78;5097915;27;45337;-62
2022/07/30 02:43:26;;;;;;;;;7.00;7.00;;;;;22.59;43.31;101194.47;5098226;27;45262;-60
2022/07/30 02:45:52;;;;;;;;;6.00;6.00;;;;;22.52;43.36;101187.06;5098338;27;45454;-63
2022/07/30 02:48:22;;;;;;;;;5.00;5.00;;;;;22.56;43.49;101185.78;5096810;27;46011;-61
2022/07/30 02:50:50;;;;;;;;;6.00;6.00;;;;;22.49;43.63;101190.94;5097659;27;45188;-65
2022/07/30 02:53:18;;;;;;;;;7.00;7.00;;;;;22.40;43.42;101174.72;5098058;27;45280;-61
2022/07/30 02:55:45;;;;;;;;;20.00;17.00;;;;;22.40;43.61;101197.28;5098235;27;45323;-61
2022/07/30 02:58:15;;;;;;;;;18.67;18.67;;;;;22.30;44.04;101191.88;5097456;27;45342;-61
2022/07/30 03:00:41;;;;;;;;;16.00;16.00;;;;;22.23;44.25;101184.47;5090269;27;45398;-64
2022/07/30 03:03:08;;;;;;;;;16.67;16.67;;;;;22.23;43.85;101189.88;5076965;27;45362;-63
2022/07/30 03:05:35;;;;;;;;;9.00;8.33;;;;;22.23;44.12;101193.44;5077825;28;45300;-67
2022/07/30 03:08:02;;;;;;;;;20.67;19.33;;;;;22.20;44.31;101184.78;5076162;28;45289;-64
2022/07/30 03:10:29;;;;;;;;;23.33;20.00;;;;;22.12;44.53;101196.31;5077294;27;45342;-63
2022/07/30 03:12:55;;;;;;;;;26.00;21.33;;;;;22.11;44.80;101202.75;5077049;28;45361;-60
2022/07/30 03:15:21;;;;;;;;;16.67;14.67;;;;;22.05;44.71;101203.31;5077459;27;45585;-61
2022/07/30 03:17:51;;;;;;;;;13.00;11.33;;;;;21.99;44.38;101198.47;5076770;28;45299;-61
2022/07/30 03:20:20;;;;;;;;;15.33;9.33;;;;;21.93;44.97;101188.22;5077109;28;45343;-64
2022/07/30 03:22:50;;;;;;;;;7.00;7.00;;;;;21.91;45.07;101191.06;5076514;28;45498;-63
2022/07/30 03:25:21;;;;;;;;;7.00;7.00;;;;;21.92;45.05;101197.34;5077603;28;45193;-64
2022/07/30 03:27:47;;;;;;;;;8.67;7.00;;;;;21.84;45.50;101184.50;5076943;28;46347;-61
2022/07/30 03:30:13;;;;;;;;;9.67;9.33;;;;;21.87;45.05;101195.06;5076566;27;45416;-62
2022/07/30 03:32:39;;;;;;;;;7.00;7.00;;;;;21.86;44.96;101197.91;5077010;28;45243;-63
2022/07/30 03:35:07;;;;;;;;;7.00;7.00;;;;;21.82;45.05;101185.66;5077546;28;45238;-61
2022/07/30 03:37:35;;;;;;;;;6.00;6.00;;;;;21.79;45.35;101195.78;5076780;28;46036;-60
2022/07/30 03:40:02;;;;;;;;;5.00;3.00;;;;;21.73;45.66;101190.06;5076878;28;45331;-63
2022/07/30 03:42:28;;;;;;;;;9.00;8.00;;;;;21.67;45.63;101188.81;5076221;28;45428;-62
2022/07/30 03:44:55;;;;;;;;;6.00;6.00;;;;;21.54;45.93;101180.13;5076945;27;45417;-63
2022/07/30 03:47:21;;;;;;;;;7.00;6.00;;;;;21.52;45.60;101190.25;5058114;28;46145;-62
2022/07/30 03:49:47;;;;;;;;;6.00;6.00;;;;;21.56;45.81;101197.06;5076557;28;45323;-61
2022/07/30 03:52:12;;;;;;;;;8.33;7.00;;;;;21.64;45.63;101199.09;5075965;28;45749;-62
2022/07/30 03:54:38;;;;;;;;;5.33;5.33;;;;;21.64;45.80;101208.06;5076742;27;45510;-62
2022/07/30 03:57:05;;;;;;;;;7.67;6.67;;;;;21.65;45.70;101209.75;5058201;28;46520;-63
2022/07/30 03:59:30;;;;;;;;;6.00;5.00;;;;;21.66;45.39;101210.63;5076483;28;45357;-63
2022/07/30 04:02:01;;;;;;;;;6.67;6.00;;;;;21.65;45.19;101195.38;5094358;27;45476;-61
2022/07/30 04:04:27;;;;;;;;;6.00;6.00;;;;;21.70;45.08;101207.47;5079158;27;45336;-63
2022/07/30 04:06:52;;;;;;;;;7.00;6.00;;;;;21.65;45.50;101198.94;5096801;27;45770;-63
2022/07/30 04:09:18;;;;;;;;;6.00;6.00;;;;;21.67;45.05;101188.81;5096630;27;45361;-64
2022/07/30 04:11:43;;;;;;;;;5.00;5.00;;;;;21.74;45.19;101198.06;5095299;27;45604;-62
2022/07/30 04:14:09;;;;;;;;;5.33;5.00;;;;;21.68;45.53;101185.09;5096927;27;45362;-66
2022/07/30 04:16:43;;;;;;;;;5.00;5.00;;;;;21.74;44.93;101203.47;5096908;27;47371;-60
2022/07/30 04:19:26;;;;;;;;;6.67;5.33;;;;;21.74;45.40;101210.75;5096790;27;45421;-63
2022/07/30 04:21:54;;;;;;;;;10.00;5.33;;;;;21.62;45.52;101201.94;5095469;27;45314;-60
2022/07/30 04:24:21;;;;;;;;;6.67;6.33;;;;;21.64;45.51;101209.91;5078143;27;45318;-61
2022/07/30 04:26:46;;;;;;;;;7.67;7.67;;;;;21.52;45.66;101205.63;5096389;27;46465;-63
2022/07/30 04:29:12;;;;;;;;;7.33;7.33;;;;;21.46;45.54;101205.19;5096086;27;45433;-60
2022/07/30 04:31:38;;;;;;;;;7.00;5.67;;;;;21.49;45.54;101217.59;5096801;27;45333;-62
2022/07/30 04:34:04;;;;;;;;;6.33;5.33;;;;;21.50;45.99;101219.31;5097034;27;45592;-61
2022/07/30 04:36:34;;;;;;;;;6.00;6.00;;;;;21.54;45.26;101214.47;5096065;27;45253;-61
2022/07/30 04:39:00;;;;;;;;;8.67;6.00;;;;;21.53;45.48;101213.59;5096168;27;45425;-61
2022/07/30 04:41:25;;;;;;;;;5.33;5.33;;;;;21.52;45.83;101219.16;5096543;27;45251;-63
2022/07/30 04:43:51;;;;;;;;;5.00;5.00;;;;;21.56;45.38;101217.88;5096659;27;45478;-61
2022/07/30 04:46:17;;;;;;;;;5.67;5.00;;;;;21.54;45.57;101209.91;5096173;27;45381;-64
2022/07/30 04:48:43;;;;;;;;;9.67;4.00;;;;;21.51;45.83;101212.91;5096159;27;45454;-63
2022/07/30 04:51:12;;;;;;;;;5.00;5.00;;;;;21.52;45.33;101202.94;5096221;27;45463;-61
2022/07/30 04:53:41;;;;;;;;;6.67;6.67;;;;;21.57;45.38;101215.03;5096398;27;45485;-63
2022/07/30 04:56:08;;;;;;;;;6.00;6.00;;;;;21.60;45.27;101225.56;5096205;27;45358;-64
2022/07/30 04:58:35;;;;;;;;;8.67;7.00;;;;;21.60;45.15;101220.13;5095931;27;45345;-65
2022/07/30 05:01:02;;;;;;;;;6.67;6.67;;;;;21.58;45.29;101227.56;5077730;27;45354;-65
2022/07/30 05:03:29;;;;;;;;;6.33;6.33;;;;;21.52;45.36;101225.44;5097691;27;45492;-65
2022/07/30 05:05:55;;;;;;;;;7.67;6.00;;;;;21.51;45.33;101221.00;5099390;27;45463;-65
2022/07/30 05:08:26;;;;;;;;;5.00;5.00;;;;;21.50;45.46;101213.91;5099381;27;45507;-65
2022/07/30 05:10:52;;;;;;;;;6.00;6.00;;;;;21.57;45.38;101214.16;5099211;27;45356;-66
2022/07/30 05:13:18;;;;;;;;;7.00;6.00;;;;;21.59;45.35;101223.00;5099823;27;45317;-66
2022/07/30 05:15:43;;;;;;;;;10.67;9.67;;;;;21.57;45.50;101227.69;5099444;27;45450;-65
2022/07/30 05:18:10;;;;;;;;;12.00;7.00;;;;;21.60;45.45;101230.97;5100119;27;45332;-66
2022/07/30 05:20:36;;;;;;;;;9.00;4.67;;;;;21.62;45.65;101234.41;5098999;27;45284;-64
2022/07/30 05:23:01;;;;;;;;;5.33;5.33;;;;;21.62;45.45;101238.97;5099611;27;45624;-62
2022/07/30 05:25:27;;;;;;;;;6.00;6.00;;;;;21.56;45.13;101224.13;5099086;27;46186;-61
2022/07/30 05:27:53;;;;;;;;;6.00;5.00;;;;;21.55;45.16;101238.66;5080648;27;45384;-62
2022/07/30 05:30:19;;;;;;;;;8.00;8.00;;;;;21.52;45.14;101238.97;5099262;27;45445;-62
2022/07/30 05:32:44;;;;;;;;;5.33;4.00;;;;;21.51;45.56;101241.81;5099336;27;45353;-62
2022/07/30 05:35:10;;;;;;;;;8.00;7.67;;;;;21.46;45.74;101242.22;5099122;27;45787;-63
2022/07/30 05:37:35;;;;;;;;;10.67;6.67;;;;;21.43;45.39;101245.22;5097665;27;45415;-63
2022/07/30 05:40:00;;;;;;;;;8.67;8.00;;;;;21.37;45.68;101234.97;5098917;27;45290;-63
2022/07/30 05:42:26;;;;;;;;;6.67;6.00;;;;;21.38;45.81;101247.50;5063908;27;45240;-62
2022/07/30 05:44:51;;;;;;;;;8.33;7.00;;;;;21.39;45.72;101241.94;5098753;27;46382;-64
2022/07/30 05:47:19;;;;;;;;;5.67;5.67;;;;;21.41;45.32;101244.50;5080491;27;45423;-64
2022/07/30 05:49:45;;;;;;;;;7.67;7.67;;;;;21.40;45.37;101226.56;5098644;27;45472;-66
2022/07/30 05:52:11;;;;;;;;;7.00;7.00;;;;;21.45;45.59;101240.50;5099283;27;45621;-65
2022/07/30 05:54:36;;;;;;;;;9.67;8.00;;;;;21.48;45.30;101248.34;5098459;27;45410;-66
2022/07/30 05:57:02;;;;;;;;;9.67;5.33;;;;;21.48;45.53;101249.22;5098680;27;45456;-64
2022/07/30 05:59:27;;;;;;;;;8.67;8.67;;;;;21.51;45.82;101248.06;5099254;27;45787;-64
2022/07/30 06:01:52;;;;;;;;;7.00;7.00;;;;;21.50;45.32;101235.53;5099062;27;45717;-65
2022/07/30 06:04:18;;;;;;;;;9.00;7.67;;;;;21.61;45.70;101243.50;5099175;27;46682;-68
2022/07/30 06:06:43;;;;;;;;;6.00;6.00;;;;;21.67;46.06;101250.22;5080699;27;45850;-61
2022/07/30 06:09:08;;;;;;;;;7.67;6.33;;;;;21.73;45.42;101255.91;5099027;27;45433;-65
2022/07/30 06:11:34;;;;;;;;;5.00;5.00;;;;;21.76;45.53;101249.38;5098759;27;45656;-66
2022/07/30 06:13:59;;;;;;;;;7.00;7.00;;;;;21.73;45.95;101241.50;5098356;27;46126;-66
2022/07/30 06:16:25;;;;;;;;;7.33;7.33;;;;;21.77;45.56;101237.56;5096845;27;45490;-65
2022/07/30 06:18:50;;;;;;;;;11.67;10.00;;;;;21.86;45.07;101254.78;5098069;27;45223;-65
2022/07/30 06:21:15;;;;;;;;;14.00;12.00;;;;;21.81;45.33;101248.94;5080377;27;45548;-66
2022/07/30 06:23:41;;;;;;;;;11.67;11.67;;;;;21.87;45.27;101256.47;5098581;27;46033;-64
2022/07/30 06:26:06;;;;;;;;;15.33;10.67;;;;;21.82;45.26;101251.50;5098288;27;45389;-64
2022/07/30 06:28:32;;;;;;;;;14.00;11.33;;;;;21.85;45.04;101267.47;5097626;27;45226;-65
2022/07/30 06:30:57;;;;;;;;;7.33;7.33;;;;;21.85;45.42;101244.94;5098853;27;45520;-62
2022/07/30 06:33:23;;;;;;;;;6.00;6.00;;;;;21.97;45.15;101260.91;5097813;27;46025;-64
2022/07/30 06:35:48;;;;;;;;;10.67;10.67;;;;;21.96;44.99;101261.91;5098119;27;45342;-65
2022/07/30 06:38:13;;;;;;;;;12.00;12.00;;;;;21.93;44.84;101272.16;5098869;27;45314;-65
2022/07/30 06:40:39;;;;;;;;;11.67;10.00;;;;;21.96;45.30;101282.72;5098773;27;45520;-65
2022/07/30 06:43:04;;;;;;;;;5.67;5.67;;;;;21.99;45.17;101285.97;5098074;27;45482;-66
2022/07/30 06:45:30;;;;;;;;;7.67;7.00;;;;;22.03;45.63;101273.88;5097924;27;45388;-65
2022/07/30 06:47:59;;;;;;;;;11.00;8.00;;;;;22.13;45.42;101282.00;5098067;27;45381;-65
2022/07/30 06:50:25;;;;;;;;;7.67;6.67;;;;;22.21;45.16;101282.16;5098330;27;45585;-61
2022/07/30 06:52:50;;;;;;;;;7.67;7.67;;;;;22.28;45.45;101280.59;5098129;27;46397;-65
2022/07/30 06:55:16;;;;;;;;;5.00;5.00;;;;;22.34;45.24;101277.28;5099161;27;45732;-61
2022/07/30 06:57:41;;;;;;;;;6.67;6.67;;;;;22.42;44.62;101281.13;5098369;27;45420;-64
2022/07/30 07:00:07;;;;;;;;;8.00;8.00;;;;;22.40;44.43;101274.97;5095484;27;45583;-65
2022/07/30 07:02:33;;;;;;;;;7.33;6.00;;;;;22.49;44.57;101282.25;5076973;28;48177;-65
2022/07/30 07:04:58;;;;;;;;;8.00;6.67;;;;;22.57;44.73;101288.66;5077297;27;45383;-66
2022/07/30 07:07:24;;;;;;;;;8.00;8.00;;;;;22.61;44.31;101290.06;5077511;27;45535;-67
2022/07/30 07:09:49;;;;;;;;;10.00;9.33;;;;;22.72;43.68;101299.03;5077423;28;45540;-67
2022/07/30 07:12:15;;;;;;;;;7.33;7.33;;;;;22.67;44.06;101294.06;5077057;28;46062;-64
2022/07/30 07:14:40;;;;;;;;;10.33;8.00;;;;;22.66;43.87;101312.19;5076786;28;45474;-63
2022/07/30 07:17:06;;;;;;;;;8.00;8.00;;;;;22.63;44.34;101309.75;5076914;28;45341;-62
2022/07/30 07:19:31;;;;;;;;;7.33;7.00;;;;;22.70;44.07;101307.31;5077426;28;45284;-62
2022/07/30 07:21:57;;;;;;;;;7.33;7.00;;;;;22.78;44.33;101302.00;5076731;28;46646;-63
2022/07/30 07:24:22;;;;;;;;;9.67;8.00;;;;;22.82;43.98;101295.28;5077322;27;45350;-62
2022/07/30 07:26:48;;;;;;;;;7.67;6.00;;;;;22.94;44.46;101302.28;5076786;27;45494;-62
2022/07/30 07:29:13;;;;;;;;;7.33;7.00;;;;;23.02;43.59;101287.94;5082809;27;45298;-63
2022/07/30 07:31:39;;;;;;;;;9.75;8.00;;;;;23.15;43.24;101296.59;5094391;27;45480;-62
2022/07/30 07:34:05;;;;;;;;;7.00;7.00;;;;;23.20;42.93;101307.03;5076780;27;45324;-65
2022/07/30 07:36:31;;;;;;;;;15.33;13.00;;;;;23.27;43.66;101305.41;5084432;27;45329;-62
2022/07/30 07:38:56;;;;;;;;;9.67;9.67;;;;;23.36;42.86;101304.50;5095914;27;45707;-63
2022/07/30 07:41:22;;;;;;;;;7.67;6.00;;;;;23.29;42.75;101292.53;5079259;27;46180;-66
2022/07/30 07:43:47;;;;;;;;;7.00;7.00;;;;;23.41;41.97;101307.59;5097764;27;45165;-63
2022/07/30 07:46:15;;;;;;;;;8.50;8.00;;;;;23.49;42.10;101296.00;5080023;27;45358;-63
2022/07/30 07:48:42;;;;;;;;;6.00;6.00;;;;;23.54;42.22;101297.22;5059582;28;45457;-64
2022/07/30 07:51:07;;;;;;;;;8.00;8.00;;;;;23.57;42.56;101295.22;5076551;28;45416;-66
2022/07/30 07:53:33;;;;;;;;;8.33;8.33;;;;;23.65;42.44;101304.34;5076614;27;45369;-67
2022/07/30 07:55:58;;;;;;;;;10.00;5.67;;;;;23.72;42.17;101299.16;5077490;28;45761;-65
2022/07/30 07:58:24;;;;;;;;;7.00;6.75;;;;;23.77;42.23;101297.69;5077388;28;45401;-63
2022/07/30 08:00:49;;;;;;;;;8.33;7.00;;;;;23.81;42.06;101290.06;5077332;28;46178;-64
2022/07/30 08:03:15;;;;;;;;;9.25;7.00;;;;;23.82;41.80;101284.47;5093840;27;45467;-61
2022/07/30 08:05:40;;;;;;;;;7.00;7.00;;;;;23.98;41.98;101291.94;5097163;27;45227;-62
2022/07/30 08:08:06;;;;;;;;;9.25;8.25;;;;;24.10;42.05;101300.72;5097203;27;45363;-63
2022/07/30 08:10:31;;;;;;;;;7.00;7.00;;;;;24.13;41.84;101293.09;5096513;27;45343;-61
2022/07/30 08:12:57;;;;;;;;;11.00;10.00;;;;;24.22;40.90;101293.13;5096712;27;45233;-61
2022/07/30 08:15:23;;;;;;;;;6.50;6.50;;;;;24.19;41.30;101279.88;5096959;27;45318;-61
2022/07/30 08:17:48;;;;;;;;;8.75;8.75;;;;;24.38;40.93;101279.72;5079161;27;45522;-61
2022/07/30 08:20:15;;;;;;;;;7.75;7.50;;;;;24.62;41.12;101293.50;5096129;27;45477;-62
2022/07/30 08:22:41;;;;;;;;;10.75;9.00;;;;;24.86;39.55;101278.31;5096617;27;45477;-67
2022/07/30 08:25:07;;;;;;;;;8.50;7.50;;;;;24.94;39.41;101281.09;5096880;27;45443;-64
2022/07/30 08:27:33;;;;;;;;;10.50;9.75;;;;;25.08;39.45;101288.66;5096871;27;45431;-62
2022/07/30 08:30:06;;;;;;;;;10.25;8.50;;;;;25.13;40.27;101285.44;5078156;27;45539;-65
2022/07/30 08:32:32;;;;;;;;;8.00;6.75;;;;;25.32;39.76;101284.34;5096623;27;45438;-63
2022/07/30 08:34:58;;;;;;;;;6.00;6.00;;;;;25.51;38.49;101294.94;5096548;27;45466;-66
2022/07/30 08:37:23;;;;;;;;;7.25;7.25;;;;;25.50;38.53;101290.50;5096881;27;45441;-62
2022/07/30 08:39:48;;;;;;;;;7.00;5.50;;;;;25.45;38.03;101291.00;5081664;27;45815;-63
2022/07/30 08:42:15;;;;;;;;;6.75;6.00;;;;;25.54;38.31;101294.63;5100108;27;45401;-66
2022/07/30 08:44:43;;;;;;;;;7.00;7.00;;;;;25.63;37.14;101299.06;5099820;27;45512;-67
2022/07/30 08:47:14;;;;;;;;;8.00;6.00;;;;;25.83;36.92;101294.19;5100457;27;45589;-62
2022/07/30 08:49:40;;;;;;;;;7.00;6.75;;;;;25.91;37.38;101296.91;5100055;27;46978;-65
2022/07/30 08:52:07;;;;;;;;;5.50;5.50;;;;;26.09;36.40;101294.06;5100018;27;45171;-65
2022/07/30 08:54:33;;;;;;;;;6.50;6.50;;;;;26.36;36.87;101291.00;5100410;27;45226;-64
2022/07/30 08:56:59;;;;;;;;;4.75;4.75;;;;;26.41;36.48;101261.31;5100293;27;45195;-62
2022/07/30 08:59:25;;;;;;;;;5.00;5.00;;;;;26.95;36.12;101282.50;5098307;27;47878;-61
2022/07/30 09:01:51;;;;;;;;;6.00;6.00;;;;;27.33;35.47;101291.75;5099938;27;45288;-61
2022/07/30 09:04:16;;;;;;;;;6.00;6.00;;;;;27.75;34.50;101290.56;5099880;27;45373;-61
2022/07/30 09:06:43;;;;;;;;;6.25;5.00;;;;;28.08;34.22;101299.34;5099543;27;45720;-64
2022/07/30 09:09:08;;;;;;;;;7.20;6.60;;;;;28.43;34.30;101289.69;5099543;27;45385;-66
2022/07/30 09:11:37;;;;;;;;;3.75;3.75;;;;;28.57;30.34;101291.59;5099530;27;45902;-67
2022/07/30 09:14:11;;;;;;;;;5.40;4.80;;;;;28.60;30.55;101291.22;5099480;27;45255;-66
2022/07/30 09:16:36;;;;;;;;;5.00;5.00;;;;;28.77;30.04;101284.50;5081405;27;45343;-66
2022/07/30 09:19:16;;;;;;;;;5.00;5.00;;;;;29.20;31.18;101284.72;5097848;27;45382;-61
2022/07/30 09:21:59;;;;;;;;;27.80;21.00;;;;;29.61;31.14;101295.16;5098826;27;45342;-61
2022/07/30 09:24:25;;;;;;;;;4.20;4.20;;;;;29.52;27.72;101288.09;5098046;27;45460;-62
2022/07/30 09:26:56;;;;;;;;;2.50;2.50;;;;;29.44;30.35;101301.91;5099734;27;45322;-64
2022/07/30 09:29:27;;;;;;;;;4.00;4.00;;;;;29.43;28.52;101300.16;5099506;27;45895;-66
2022/07/30 09:31:57;;;;;;;;;6.00;6.00;;;;;29.60;29.76;101301.69;5099403;27;45383;-62
2022/07/30 09:34:26;;;;;;;;;6.00;4.00;;;;;29.56;29.42;101305.84;5100109;27;45307;-66
2022/07/30 09:36:53;;;;;;;;;4.40;4.20;;;;;29.76;31.85;101298.69;5087337;27;45581;-62
2022/07/30 09:39:38;;;;;;;;;5.00;5.00;;;;;30.10;29.99;101297.19;5061047;28;45418;-66
2022/07/30 09:42:19;;;;;;;;;4.80;4.80;;;;;30.41;29.27;101294.91;5078677;28;45264;-64
2022/07/30 09:44:46;;;;;;;;;5.20;2.60;;;;;30.56;28.19;101299.44;5078400;28;45416;-65
2022/07/30 09:47:29;;;;;;;;;4.00;4.00;;;;;30.64;27.85;101304.84;5078321;28;45519;-65
2022/07/30 09:50:04;;;;;;;;;5.20;5.20;;;;;30.91;27.32;101301.22;5077220;28;45462;-66
2022/07/30 09:52:29;;;;;;;;;5.00;5.00;;;;;31.29;27.55;101298.91;5077874;28;45405;-64
2022/07/30 09:54:54;;;;;;;;;14.00;8.00;;;;;31.54;28.14;101307.47;5078847;28;45568;-67
2022/07/30 09:57:20;;;;;;;;;5.50;4.00;;;;;31.89;26.88;101310.09;5078143;27;45517;-67
2022/07/30 09:59:45;;;;;;;;;6.00;4.75;;;;;32.14;26.20;101305.69;5059610;28;45548;-66
2022/07/30 10:02:11;;;;;;;;;13.25;11.25;;;;;32.44;26.17;101302.59;5078335;28;45492;-64
2022/07/30 10:04:36;;;;;;;;;4.50;4.50;;;;;32.78;26.65;101298.72;5078263;28;45416;-69
2022/07/30 10:07:02;;;;;;;;;4.75;4.75;;;;;33.03;25.99;101302.50;5078665;28;45527;-67
2022/07/30 10:09:33;;;;;;;;;5.00;5.00;;;;;33.31;26.14;101298.56;5078043;27;45924;-63
2022/07/30 10:12:01;;;;;;;;;3.40;3.40;;;;;33.36;25.53;101296.06;5077489;28;45279;-66
2022/07/30 10:14:29;;;;;;;;;6.00;3.60;;;;;33.02;23.97;101298.03;5078504;28;45420;-67
2022/07/30 10:16:55;;;;;;;;;3.40;3.40;;;;;32.53;24.67;101306.78;5078807;27;45575;-67
2022/07/30 10:19:21;;;;;;;;;3.75;3.75;;;;;32.29;26.01;101305.53;5076829;28;47417;-67
2022/07/30 10:21:49;;;;;;;;;3.40;3.40;;;;;32.20;26.43;101306.78;5078125;28;45240;-67
2022/07/30 10:24:18;;;;;;;;;4.40;3.80;;;;;32.22;25.40;101296.41;5077985;28;45423;-65
2022/07/30 10:26:48;;;;;;;;;4.40;4.40;;;;;32.01;25.76;101302.09;5078319;28;45290;-64
2022/07/30 10:29:18;;;;;;;;;4.80;4.80;;;;;31.83;26.14;101298.03;5077737;28;46985;-63
2022/07/30 10:31:48;;;;;;;;;4.60;4.00;;;;;31.68;26.17;101291.84;5077288;28;45517;-66
2022/07/30 10:34:18;;;;;;;;;4.00;4.00;;;;;31.51;26.71;101290.50;5078161;28;45295;-68
2022/07/30 10:36:49;;;;;;;;;7.40;4.00;;;;;31.26;26.94;101271.00;5088528;27;45544;-68
2022/07/30 10:39:20;;;;;;;;;5.80;4.60;;;;;31.07;27.89;101270.66;5097964;27;46045;-65
2022/07/30 10:42:07;;;;;;;;;4.20;4.20;;;;;30.89;27.67;101281.34;5098387;27;45476;-64
2022/07/30 10:44:51;;;;;;;;;5.20;2.40;;;;;30.68;28.04;101273.19;5098009;27;45361;-68
2022/07/30 10:47:18;;;;;;;;;4.80;4.80;;;;;30.57;28.26;101273.69;5098192;27;45224;-65
2022/07/30 10:50:14;;;;;;;;;5.00;5.00;;;;;30.31;28.51;101274.34;5097506;27;45313;-66
2022/07/30 10:52:55;;;;;;;;;5.20;5.20;;;;;30.13;28.75;101274.84;5077168;27;45506;-63
2022/07/30 10:55:27;;;;;;;;;7.80;4.40;;;;;29.93;29.10;101289.16;5098208;27;45250;-64
2022/07/30 10:57:56;;;;;;;;;3.40;3.40;;;;;29.80;29.72;101279.97;5079525;27;45425;-63
2022/07/30 11:00:22;;;;;;;;;7.60;6.60;;;;;29.74;29.22;101278.00;5097731;27;46303;-65
2022/07/30 11:03:10;;;;;;;;;4.25;4.25;;;;;29.67;29.60;101270.56;5097732;27;45240;-68
2022/07/30 11:05:36;;;;;;;;;4.40;4.40;;;;;29.61;29.37;101281.47;5097960;27;45457;-63
2022/07/30 11:08:35;;;;;;;;;9.50;6.75;;;;;29.50;29.70;101279.22;5097863;27;45587;-70
2022/07/30 11:11:02;;;;;;;;;4.80;4.40;;;;;29.47;29.32;101285.09;5042316;27;46209;-70
2022/07/30 11:13:53;;;;;;;;;5.00;5.00;;;;;29.29;29.85;101274.50;5098033;27;45279;-69
2022/07/30 11:16:21;;;;;;;;;6.20;6.00;;;;;29.24;29.69;101272.34;5097502;27;45386;-70
2022/07/30 11:19:06;;;;;;;;;4.00;4.00;;;;;29.25;30.04;101265.81;5098619;27;45290;-70
2022/07/30 11:21:32;;;;;;;;;5.80;5.80;;;;;29.24;30.61;101261.38;5097790;27;46141;-64
2022/07/30 11:23:58;;;;;;;;;5.75;3.75;;;;;29.30;30.39;101274.34;5097739;27;45189;-63
2022/07/30 11:26:40;;;;;;;;;4.00;4.00;;;;;29.38;30.13;101260.50;5097733;27;45255;-69